createdAt,value
2019-03-23T00:00:40.531Z,7.07
2019-03-23T00:01:40.520Z,7.09
2019-03-23T00:02:40.504Z,7.01
2019-03-23T00:03:40.515Z,7.04
2019-03-23T00:04:40.497Z,7.04
2019-03-23T00:05:40.461Z,7.05
2019-03-23T00:06:40.454Z,7.04
2019-03-23T00:07:40.446Z,7.04
2019-03-23T00:08:40.435Z,7.04
2019-03-23T00:09:40.472Z,6.99
2019-03-23T00:10:40.412Z,6.97
2019-03-23T00:11:40.425Z,7.02
2019-03-23T00:12:40.449Z,6.95
2019-03-23T00:13:40.922Z,6.94
2019-03-23T00:14:40.403Z,6.97
2019-03-23T00:15:40.397Z,6.90
2019-03-23T00:16:40.351Z,6.99
2019-03-23T00:17:40.338Z,6.94
2019-03-23T00:18:40.327Z,6.97
2019-03-23T00:19:40.319Z,6.87
2019-03-23T00:20:40.321Z,6.95
2019-03-23T00:21:40.319Z,6.98
2019-03-23T00:22:40.297Z,6.89
2019-03-23T00:23:40.260Z,6.90
2019-03-23T00:24:40.260Z,6.91
2019-03-23T00:25:40.269Z,6.90
2019-03-23T00:26:40.277Z,6.95
2019-03-23T00:27:40.923Z,6.90
2019-03-23T00:28:40.228Z,6.87
2019-03-23T00:29:40.206Z,6.94
2019-03-23T00:30:40.194Z,6.91
2019-03-23T00:31:40.447Z,6.91
2019-03-23T00:32:40.196Z,6.95
2019-03-23T00:33:40.171Z,6.89
2019-03-23T00:34:40.148Z,6.86
2019-03-23T00:35:40.149Z,6.91
2019-03-23T00:36:41.688Z,6.86
2019-03-23T00:37:40.136Z,6.81
2019-03-23T00:38:40.111Z,6.86
2019-03-23T00:39:40.102Z,6.83
2019-03-23T00:40:40.094Z,6.87
2019-03-23T00:41:40.085Z,6.87
2019-03-23T00:42:40.115Z,6.83
2019-03-23T00:43:40.051Z,6.90
2019-03-23T00:44:40.049Z,6.86
2019-03-23T00:45:40.046Z,6.84
2019-03-23T00:46:40.067Z,6.83
2019-03-23T00:47:40.923Z,6.89
2019-03-23T00:48:40.023Z,6.91
2019-03-23T00:49:40.003Z,6.80
2019-03-23T00:50:40.003Z,6.77
2019-03-23T00:51:39.978Z,6.77
2019-03-23T00:52:39.983Z,6.76
2019-03-23T00:53:39.974Z,6.80
2019-03-23T00:54:39.927Z,6.83
2019-03-23T00:55:39.947Z,6.73
2019-03-23T00:56:39.917Z,6.83
2019-03-23T00:57:39.897Z,6.81
2019-03-23T00:58:39.929Z,6.72
2019-03-23T00:59:39.893Z,6.71
2019-03-23T01:00:39.868Z,6.72
2019-03-23T01:01:39.857Z,6.79
2019-03-23T01:02:41.761Z,6.66
2019-03-23T01:03:39.828Z,6.69
2019-03-23T01:04:39.853Z,6.69
2019-03-23T01:05:39.866Z,6.79
2019-03-23T01:06:39.802Z,6.71
2019-03-23T01:07:39.809Z,6.76
2019-03-23T01:08:39.782Z,6.68
2019-03-23T01:09:39.767Z,6.65
2019-03-23T01:10:39.777Z,6.76
2019-03-23T01:11:39.787Z,6.71
2019-03-23T01:12:39.739Z,6.65
2019-03-23T01:13:39.739Z,6.72
2019-03-23T01:14:39.718Z,6.69
2019-03-23T01:15:39.704Z,6.63
2019-03-23T01:16:39.702Z,6.69
2019-03-23T01:17:39.706Z,6.63
2019-03-23T01:18:39.690Z,6.66
2019-03-23T01:19:39.666Z,6.66
2019-03-23T01:20:49.336Z,6.63
2019-03-23T01:21:40.703Z,6.62
2019-03-23T01:22:39.635Z,6.68
2019-03-23T01:23:39.622Z,6.61
2019-03-23T01:24:39.615Z,6.63
2019-03-23T01:25:39.632Z,6.58
2019-03-23T01:26:39.602Z,6.62
2019-03-23T01:27:39.574Z,6.66
2019-03-23T01:28:39.553Z,6.54
2019-03-23T01:29:39.545Z,6.53
2019-03-23T01:30:39.550Z,6.61
2019-03-23T01:31:39.555Z,6.56
2019-03-23T01:32:39.530Z,6.56
2019-03-23T01:33:39.514Z,6.53
2019-03-23T01:34:39.494Z,6.59
2019-03-23T01:35:39.480Z,6.61
2019-03-23T01:36:39.507Z,6.53
2019-03-23T01:37:39.503Z,6.50
2019-03-23T01:38:39.444Z,6.59
2019-03-23T01:39:39.439Z,6.54
2019-03-23T01:40:39.422Z,6.46
2019-03-23T01:41:39.419Z,6.51
2019-03-23T01:42:39.421Z,6.54
2019-03-23T01:43:39.468Z,6.56
2019-03-23T01:44:39.410Z,6.61
2019-03-23T01:45:39.417Z,6.61
2019-03-23T01:46:39.383Z,6.62
2019-03-23T01:47:39.469Z,6.59
2019-03-23T01:48:39.353Z,6.61
2019-03-23T01:49:39.331Z,6.47
2019-03-23T01:50:39.331Z,6.41
2019-03-23T01:51:39.316Z,6.44
2019-03-23T01:52:39.323Z,6.47
2019-03-23T01:53:39.287Z,6.44
2019-03-23T01:54:39.294Z,6.59
2019-03-23T01:55:39.524Z,6.51
2019-03-23T01:56:39.310Z,6.43
2019-03-23T01:57:39.280Z,6.59
2019-03-23T01:58:39.253Z,6.46
2019-03-23T01:59:39.234Z,6.47
2019-03-23T02:00:39.248Z,6.46
2019-03-23T02:01:39.243Z,6.41
2019-03-23T02:02:39.194Z,6.36
2019-03-23T02:03:39.932Z,6.46
2019-03-23T02:04:39.179Z,6.47
2019-03-23T02:05:39.167Z,6.33
2019-03-23T02:06:39.175Z,6.54
2019-03-23T02:07:39.194Z,6.43
2019-03-23T02:08:39.143Z,6.36
2019-03-23T02:09:39.136Z,6.43
2019-03-23T02:10:39.104Z,6.46
2019-03-23T02:11:39.119Z,6.43
2019-03-23T02:12:39.089Z,6.50
2019-03-23T02:13:39.094Z,6.32
2019-03-23T02:14:39.061Z,6.40
2019-03-23T02:15:39.074Z,6.48
2019-03-23T02:16:39.053Z,6.32
2019-03-23T02:17:39.082Z,6.30
2019-03-23T02:18:39.012Z,6.36
2019-03-23T02:19:39.017Z,6.47
2019-03-23T02:20:39.011Z,6.35
2019-03-23T02:21:38.985Z,6.46
2019-03-23T02:22:38.983Z,6.56
2019-03-23T02:23:38.985Z,6.50
2019-03-23T02:24:38.992Z,6.36
2019-03-23T02:25:38.960Z,6.47
2019-03-23T02:26:38.934Z,6.41
2019-03-23T02:27:38.936Z,6.44
2019-03-23T02:28:38.909Z,6.56
2019-03-23T02:29:38.988Z,6.41
2019-03-23T02:30:38.894Z,6.48
2019-03-23T02:31:38.866Z,6.47
2019-03-23T02:32:38.868Z,6.51
2019-03-23T02:33:38.854Z,6.40
2019-03-23T02:34:39.446Z,6.48
2019-03-23T02:35:38.877Z,6.47
2019-03-23T02:36:38.829Z,6.53
2019-03-23T02:37:38.822Z,6.43
2019-03-23T02:38:38.858Z,6.47
2019-03-23T02:39:38.816Z,6.47
2019-03-23T02:40:38.847Z,6.41
2019-03-23T02:41:38.796Z,6.44
2019-03-23T02:42:38.791Z,6.38
2019-03-23T02:43:38.754Z,6.46
2019-03-23T02:44:38.746Z,6.46
2019-03-23T02:45:39.013Z,6.41
2019-03-23T02:46:38.716Z,6.32
2019-03-23T02:47:38.706Z,6.43
2019-03-23T02:48:38.693Z,6.41
2019-03-23T02:49:38.678Z,6.40
2019-03-23T02:50:38.660Z,6.38
2019-03-23T02:51:39.869Z,6.43
2019-03-23T02:52:38.639Z,6.38
2019-03-23T02:53:38.628Z,6.47
2019-03-23T02:54:38.626Z,6.40
2019-03-23T02:55:38.643Z,6.43
2019-03-23T02:56:38.602Z,6.38
2019-03-23T02:57:38.605Z,6.44
2019-03-23T02:58:38.584Z,6.44
2019-03-23T02:59:38.573Z,6.36
2019-03-23T03:00:38.565Z,6.38
2019-03-23T03:01:38.571Z,6.40
2019-03-23T03:02:38.528Z,6.30
2019-03-23T03:03:38.532Z,6.32
2019-03-23T03:04:38.499Z,6.35
2019-03-23T03:05:38.492Z,6.32
2019-03-23T03:06:38.541Z,6.25
2019-03-23T03:07:42.268Z,6.35
2019-03-23T03:08:38.515Z,6.32
2019-03-23T03:09:38.458Z,6.25
2019-03-23T03:10:38.449Z,6.30
2019-03-23T03:11:38.462Z,6.33
2019-03-23T03:12:38.443Z,6.25
2019-03-23T03:13:38.451Z,6.25
2019-03-23T03:14:38.394Z,6.21
2019-03-23T03:15:38.394Z,6.21
2019-03-23T03:16:38.373Z,6.16
2019-03-23T03:17:38.387Z,6.21
2019-03-23T03:18:38.381Z,6.16
2019-03-23T03:19:38.384Z,6.21
2019-03-23T03:20:38.351Z,6.09
2019-03-23T03:21:38.341Z,6.04
2019-03-23T03:22:38.344Z,6.07
2019-03-23T03:23:38.315Z,6.10
2019-03-23T03:24:38.291Z,6.09
2019-03-23T03:25:38.319Z,6.09
2019-03-23T03:26:38.310Z,6.04
2019-03-23T03:27:38.266Z,6.06
2019-03-23T03:28:38.277Z,6.01
2019-03-23T03:29:38.250Z,6.07
2019-03-23T03:30:38.280Z,5.98
2019-03-23T03:31:38.256Z,6.01
2019-03-23T03:32:38.246Z,6.00
2019-03-23T03:33:38.215Z,6.00
2019-03-23T03:34:38.217Z,5.93
2019-03-23T03:35:38.171Z,5.96
2019-03-23T03:36:38.158Z,6.00
2019-03-23T03:37:38.159Z,5.96
2019-03-23T03:38:38.153Z,5.93
2019-03-23T03:39:38.171Z,5.96
2019-03-23T03:40:38.127Z,5.98
2019-03-23T03:41:38.123Z,5.96
2019-03-23T03:42:38.106Z,5.96
2019-03-23T03:43:38.086Z,5.91
2019-03-23T03:44:38.108Z,5.92
2019-03-23T03:45:38.069Z,5.88
2019-03-23T03:46:38.049Z,5.91
2019-03-23T03:47:41.014Z,5.86
2019-03-23T03:48:38.027Z,5.85
2019-03-23T03:49:38.010Z,5.81
2019-03-23T03:50:38.039Z,5.75
2019-03-23T03:51:38.007Z,5.74
2019-03-23T03:52:38.001Z,5.71
2019-03-23T03:53:38.065Z,5.77
2019-03-23T03:54:37.965Z,5.77
2019-03-23T03:55:37.968Z,5.75
2019-03-23T03:56:37.945Z,5.75
2019-03-23T03:57:37.928Z,5.67
2019-03-23T03:58:37.954Z,5.66
2019-03-23T03:59:37.924Z,5.66
2019-03-23T04:00:37.922Z,5.70
2019-03-23T04:01:37.893Z,5.66
2019-03-23T04:02:37.904Z,5.68
2019-03-23T04:03:37.872Z,5.70
2019-03-23T04:04:37.855Z,5.63
2019-03-23T04:05:37.863Z,5.64
2019-03-23T04:06:37.840Z,5.64
2019-03-23T04:07:37.815Z,5.66
2019-03-23T04:08:37.815Z,5.64
2019-03-23T04:09:40.332Z,5.59
2019-03-23T04:10:37.818Z,5.57
2019-03-23T04:11:37.783Z,5.57
2019-03-23T04:12:37.774Z,5.59
2019-03-23T04:13:37.758Z,5.53
2019-03-23T04:14:37.749Z,5.66
2019-03-23T04:15:37.781Z,5.57
2019-03-23T04:16:37.735Z,5.66
2019-03-23T04:17:37.720Z,5.53
2019-03-23T04:18:37.704Z,5.57
2019-03-23T04:19:37.696Z,5.63
2019-03-23T04:20:37.680Z,5.53
2019-03-23T04:21:37.685Z,5.60
2019-03-23T04:22:37.692Z,5.56
2019-03-23T04:23:37.658Z,5.50
2019-03-23T04:24:37.642Z,5.50
2019-03-23T04:25:37.641Z,5.50
2019-03-23T04:26:39.276Z,5.52
2019-03-23T04:27:37.624Z,5.59
2019-03-23T04:28:37.601Z,5.53
2019-03-23T04:29:37.653Z,5.55
2019-03-23T04:30:37.573Z,5.55
2019-03-23T04:31:37.566Z,5.56
2019-03-23T04:32:37.570Z,5.50
2019-03-23T04:33:37.555Z,5.55
2019-03-23T04:34:37.534Z,5.48
2019-03-23T04:35:37.526Z,5.48
2019-03-23T04:36:37.507Z,5.52
2019-03-23T04:37:37.505Z,5.49
2019-03-23T04:38:37.497Z,5.50
2019-03-23T04:39:37.476Z,5.53
2019-03-23T04:40:37.458Z,5.52
2019-03-23T04:41:37.446Z,5.57
2019-03-23T04:42:37.445Z,5.52
2019-03-23T04:43:37.466Z,5.48
2019-03-23T04:44:37.417Z,5.50
2019-03-23T04:45:37.419Z,5.50
2019-03-23T04:46:37.397Z,5.40
2019-03-23T04:47:37.423Z,5.38
2019-03-23T04:48:37.401Z,5.45
2019-03-23T04:49:37.388Z,5.40
2019-03-23T04:50:37.363Z,5.45
2019-03-23T04:51:37.355Z,5.37
2019-03-23T04:52:37.323Z,5.43
2019-03-23T04:53:37.311Z,5.30
2019-03-23T04:54:38.953Z,5.30
2019-03-23T04:55:37.323Z,5.32
2019-03-23T04:56:37.286Z,5.32
2019-03-23T04:57:37.280Z,5.25
2019-03-23T04:58:37.256Z,5.30
2019-03-23T04:59:37.238Z,5.28
2019-03-23T05:00:37.271Z,5.25
2019-03-23T05:01:37.239Z,5.23
2019-03-23T05:02:37.243Z,5.17
2019-03-23T05:03:37.210Z,5.17
2019-03-23T05:04:37.199Z,5.23
2019-03-23T05:05:37.178Z,5.17
2019-03-23T05:06:37.199Z,5.22
2019-03-23T05:07:37.214Z,5.14
2019-03-23T05:08:37.173Z,5.28
2019-03-23T05:09:37.148Z,5.28
2019-03-23T05:10:37.129Z,5.20
2019-03-23T05:11:37.149Z,5.19
2019-03-23T05:12:37.113Z,5.20
2019-03-23T05:13:37.094Z,5.16
2019-03-23T05:14:37.093Z,5.22
2019-03-23T05:15:37.082Z,5.17
2019-03-23T05:16:37.072Z,5.19
2019-03-23T05:17:37.083Z,5.16
2019-03-23T05:18:37.041Z,5.22
2019-03-23T05:19:37.024Z,5.20
2019-03-23T05:20:37.026Z,5.22
2019-03-23T05:21:37.014Z,5.28
2019-03-23T05:22:37.024Z,5.22
2019-03-23T05:23:36.996Z,5.14
2019-03-23T05:24:36.985Z,5.19
2019-03-23T05:25:36.971Z,5.19
2019-03-23T05:26:36.965Z,5.14
2019-03-23T05:27:36.964Z,5.23
2019-03-23T05:28:36.971Z,5.27
2019-03-23T05:29:36.940Z,5.19
2019-03-23T05:30:36.933Z,5.16
2019-03-23T05:31:36.896Z,5.20
2019-03-23T05:32:36.890Z,5.20
2019-03-23T05:33:36.874Z,5.19
2019-03-23T05:34:36.907Z,5.25
2019-03-23T05:35:36.864Z,5.17
2019-03-23T05:36:36.841Z,5.20
2019-03-23T05:37:36.839Z,5.28
2019-03-23T05:38:44.218Z,5.28
2019-03-23T05:39:37.834Z,5.16
2019-03-23T05:40:36.804Z,5.25
2019-03-23T05:41:36.801Z,5.35
2019-03-23T05:42:36.777Z,5.31
2019-03-23T05:43:36.769Z,5.35
2019-03-23T05:44:36.783Z,5.38
2019-03-23T05:45:36.747Z,5.43
2019-03-23T05:46:36.748Z,5.43
2019-03-23T05:47:36.741Z,5.50
2019-03-23T05:48:36.726Z,5.50
2019-03-23T05:49:36.721Z,5.55
2019-03-23T05:50:36.718Z,5.45
2019-03-23T05:51:36.676Z,5.57
2019-03-23T05:52:36.676Z,5.59
2019-03-23T05:53:36.667Z,5.56
2019-03-23T05:54:36.640Z,5.70
2019-03-23T05:55:36.667Z,5.68
2019-03-23T05:56:36.628Z,5.82
2019-03-23T05:57:36.615Z,5.75
2019-03-23T05:58:36.615Z,5.88
2019-03-23T05:59:36.602Z,5.98
2019-03-23T06:00:36.631Z,6.07
2019-03-23T06:01:36.575Z,6.11
2019-03-23T06:02:36.556Z,6.26
2019-03-23T06:03:36.543Z,6.38
2019-03-23T06:04:36.533Z,6.44
2019-03-23T06:05:36.531Z,6.46
2019-03-23T06:06:36.551Z,6.76
2019-03-23T06:07:36.524Z,6.73
2019-03-23T06:08:36.488Z,6.83
2019-03-23T06:09:36.480Z,6.79
2019-03-23T06:10:36.493Z,6.80
2019-03-23T06:11:36.489Z,6.81
2019-03-23T06:12:36.464Z,6.94
2019-03-23T06:13:36.448Z,6.97
2019-03-23T06:14:36.432Z,7.05
2019-03-23T06:15:36.421Z,7.09
2019-03-23T06:16:36.442Z,7.23
2019-03-23T06:17:36.390Z,7.50
2019-03-23T06:18:36.388Z,7.56
2019-03-23T06:19:36.384Z,7.84
2019-03-23T06:20:36.376Z,7.87
2019-03-23T06:21:36.359Z,8.20
2019-03-23T06:22:36.354Z,8.37
2019-03-23T06:23:36.349Z,8.54
2019-03-23T06:24:36.321Z,8.73
2019-03-23T06:25:36.323Z,8.91
2019-03-23T06:26:36.301Z,9.10
2019-03-23T06:27:36.321Z,9.40
2019-03-23T06:28:36.320Z,9.56
2019-03-23T06:29:36.275Z,9.64
2019-03-23T06:30:36.258Z,9.67
2019-03-23T06:31:36.253Z,9.81
2019-03-23T06:32:36.238Z,9.85
2019-03-23T06:33:36.276Z,9.93
2019-03-23T06:34:36.212Z,10.00
2019-03-23T06:35:36.195Z,10.15
2019-03-23T06:36:36.198Z,10.42
2019-03-23T06:37:36.171Z,10.55
2019-03-23T06:38:36.194Z,10.65
2019-03-23T06:39:36.167Z,10.76
2019-03-23T06:40:36.146Z,10.94
2019-03-23T06:41:36.134Z,10.95
2019-03-23T06:42:36.124Z,10.96
2019-03-23T06:43:36.163Z,11.24
2019-03-23T06:44:36.106Z,11.24
2019-03-23T06:45:36.097Z,11.32
2019-03-23T06:46:36.095Z,11.50
2019-03-23T06:47:36.069Z,11.59
2019-03-23T06:48:36.051Z,11.75
2019-03-23T06:49:36.063Z,11.89
2019-03-23T06:50:36.038Z,12.11
2019-03-23T06:51:36.029Z,12.29
2019-03-23T06:52:36.018Z,12.41
2019-03-23T06:53:36.004Z,12.42
2019-03-23T06:54:36.011Z,12.62
2019-03-23T06:55:35.977Z,12.63
2019-03-23T06:56:35.971Z,12.89
2019-03-23T06:57:35.970Z,13.11
2019-03-23T06:58:35.956Z,13.40
2019-03-23T06:59:35.943Z,13.33
2019-03-23T07:00:35.918Z,13.56
2019-03-23T07:01:35.912Z,13.80
2019-03-23T07:02:35.933Z,13.96
2019-03-23T07:03:35.891Z,14.17
2019-03-23T07:04:35.899Z,14.44
2019-03-23T07:05:35.868Z,14.64
2019-03-23T07:06:35.853Z,14.88
2019-03-23T07:07:35.875Z,15.05
2019-03-23T07:08:35.823Z,15.02
2019-03-23T07:09:35.854Z,15.03
2019-03-23T07:10:35.827Z,15.26
2019-03-23T07:11:35.806Z,15.42
2019-03-23T07:12:35.787Z,15.46
2019-03-23T07:13:35.779Z,15.64
2019-03-23T07:14:35.790Z,15.74
2019-03-23T07:15:35.760Z,15.99
2019-03-23T07:16:35.823Z,16.14
2019-03-23T07:17:35.799Z,16.30
2019-03-23T07:18:35.726Z,16.42
2019-03-23T07:19:35.744Z,16.50
2019-03-23T07:20:35.701Z,16.60
2019-03-23T07:21:35.698Z,16.81
2019-03-23T07:22:35.708Z,16.90
2019-03-23T07:23:35.706Z,16.89
2019-03-23T07:24:35.665Z,17.07
2019-03-23T07:25:35.653Z,17.11
2019-03-23T07:26:35.635Z,17.25
2019-03-23T07:27:35.620Z,17.33
2019-03-23T07:28:35.619Z,17.44
2019-03-23T07:29:35.649Z,17.66
2019-03-23T07:30:35.591Z,17.84
2019-03-23T07:31:35.583Z,18.00
2019-03-23T07:32:35.584Z,18.12
2019-03-23T07:33:35.559Z,18.27
2019-03-23T07:34:35.549Z,18.42
2019-03-23T07:35:35.655Z,18.59
2019-03-23T07:36:35.530Z,18.64
2019-03-23T07:37:35.526Z,18.76
2019-03-23T07:38:35.493Z,18.92
2019-03-23T07:39:35.493Z,18.86
2019-03-23T07:40:35.476Z,18.92
2019-03-23T07:41:35.482Z,18.94
2019-03-23T07:42:35.466Z,18.94
2019-03-23T07:43:35.484Z,19.15
2019-03-23T07:44:35.437Z,19.23
2019-03-23T07:45:35.435Z,19.51
2019-03-23T07:46:35.666Z,19.66
2019-03-23T07:47:35.407Z,19.76
2019-03-23T07:48:35.399Z,19.88
2019-03-23T07:49:35.384Z,20.20
2019-03-23T07:50:35.366Z,20.42
2019-03-23T07:51:35.357Z,20.58
2019-03-23T07:52:35.360Z,20.80
2019-03-23T07:53:35.329Z,20.83
2019-03-23T07:54:35.338Z,20.95
2019-03-23T07:55:35.317Z,21.05
2019-03-23T07:56:35.332Z,21.06
2019-03-23T07:57:35.297Z,21.34
2019-03-23T07:58:35.291Z,21.54
2019-03-23T07:59:35.267Z,21.81
2019-03-23T08:00:35.310Z,22.07
2019-03-23T08:01:35.289Z,22.37
2019-03-23T08:02:35.234Z,22.50
2019-03-23T08:03:35.238Z,22.71
2019-03-23T08:04:35.221Z,22.87
2019-03-23T08:05:35.205Z,23.07
2019-03-23T08:06:35.206Z,23.22
2019-03-23T08:07:35.233Z,23.42
2019-03-23T08:08:35.174Z,23.83
2019-03-23T08:09:37.832Z,23.82
2019-03-23T08:10:35.150Z,24.34
2019-03-23T08:11:35.130Z,24.69
2019-03-23T08:12:35.128Z,24.94
2019-03-23T08:13:35.144Z,25.28
2019-03-23T08:14:36.131Z,25.56
2019-03-23T08:15:35.108Z,25.77
2019-03-23T08:16:35.079Z,26.17
2019-03-23T08:17:35.069Z,26.49
2019-03-23T08:18:35.097Z,26.86
2019-03-23T08:19:35.058Z,27.14
2019-03-23T08:20:35.043Z,27.46
2019-03-23T08:21:35.052Z,27.41
2019-03-23T08:22:35.000Z,27.59
2019-03-23T08:23:35.022Z,27.79
2019-03-23T08:24:34.990Z,28.06
2019-03-23T08:25:34.987Z,28.21
2019-03-23T08:26:34.984Z,28.32
2019-03-23T08:27:35.015Z,28.59
2019-03-23T08:28:35.016Z,28.69
2019-03-23T08:29:35.381Z,28.78
2019-03-23T08:30:34.922Z,28.88
2019-03-23T08:31:35.078Z,29.06
2019-03-23T08:32:34.924Z,29.45
2019-03-23T08:33:34.924Z,29.77
2019-03-23T08:34:34.932Z,29.99
2019-03-23T08:35:34.882Z,30.36
2019-03-23T08:36:34.869Z,30.47
2019-03-23T08:37:34.851Z,30.43
2019-03-23T08:38:34.857Z,30.65
2019-03-23T08:39:34.857Z,30.47
2019-03-23T08:40:35.916Z,30.67
2019-03-23T08:41:34.847Z,30.89
2019-03-23T08:42:35.058Z,31.17
2019-03-23T08:43:34.793Z,31.30
2019-03-23T08:44:34.780Z,31.30
2019-03-23T08:45:34.763Z,31.31
2019-03-23T08:46:34.786Z,31.62
2019-03-23T08:47:34.750Z,31.79
2019-03-23T08:48:34.727Z,31.93
2019-03-23T08:49:34.725Z,32.18
2019-03-23T08:50:34.736Z,32.51
2019-03-23T08:51:34.715Z,32.49
2019-03-23T08:52:34.723Z,32.61
2019-03-23T08:53:34.690Z,32.64
2019-03-23T08:54:34.673Z,32.98
2019-03-23T08:55:34.656Z,33.06
2019-03-23T08:56:34.679Z,32.98
2019-03-23T08:57:34.671Z,32.86
2019-03-23T08:58:34.633Z,32.88
2019-03-23T08:59:34.617Z,33.19
2019-03-23T09:00:34.608Z,33.37
2019-03-23T09:01:34.610Z,33.31
2019-03-23T09:02:34.601Z,33.55
2019-03-23T09:03:34.619Z,33.92
2019-03-23T09:04:36.477Z,33.89
2019-03-23T09:05:34.562Z,33.80
2019-03-23T09:06:34.558Z,33.86
2019-03-23T09:07:34.543Z,33.79
2019-03-23T09:08:34.540Z,33.78
2019-03-23T09:09:34.548Z,33.94
2019-03-23T09:10:34.503Z,34.02
2019-03-23T09:11:34.482Z,33.94
2019-03-23T09:12:34.492Z,34.01
2019-03-23T09:13:40.609Z,34.02
2019-03-23T09:14:35.501Z,34.20
2019-03-23T09:15:34.462Z,34.23
2019-03-23T09:16:34.456Z,34.20
2019-03-23T09:17:34.444Z,34.36
2019-03-23T09:18:34.443Z,34.50
2019-03-23T09:19:34.409Z,34.42
2019-03-23T09:20:34.444Z,34.42
2019-03-23T09:21:34.393Z,34.48
2019-03-23T09:22:34.382Z,33.98
2019-03-23T09:23:34.381Z,34.00
2019-03-23T09:24:34.355Z,34.00
2019-03-23T09:25:34.373Z,33.97
2019-03-23T09:26:34.355Z,34.04
2019-03-23T09:27:34.361Z,33.79
2019-03-23T09:28:34.328Z,33.70
2019-03-23T09:29:34.321Z,33.70
2019-03-23T09:30:34.294Z,33.67
2019-03-23T09:31:34.306Z,33.87
2019-03-23T09:32:34.277Z,34.31
2019-03-23T09:33:34.267Z,34.34
2019-03-23T09:34:34.290Z,34.58
2019-03-23T09:35:34.315Z,34.54
2019-03-23T09:36:34.236Z,34.74
2019-03-23T09:37:38.319Z,34.79
2019-03-23T09:38:34.232Z,34.84
2019-03-23T09:39:34.215Z,34.94
2019-03-23T09:40:34.205Z,35.26
2019-03-23T09:41:34.192Z,35.54
2019-03-23T09:42:34.186Z,35.66
2019-03-23T09:43:34.168Z,35.85
2019-03-23T09:44:34.179Z,35.73
2019-03-23T09:45:34.146Z,35.77
2019-03-23T09:46:34.141Z,35.84
2019-03-23T09:47:34.132Z,35.88
2019-03-23T09:48:34.141Z,35.93
2019-03-23T09:49:34.103Z,35.97
2019-03-23T09:50:34.085Z,35.93
2019-03-23T09:51:34.086Z,35.58
2019-03-23T09:52:34.085Z,35.67
2019-03-23T09:53:34.106Z,35.55
2019-03-23T09:54:34.060Z,35.26
2019-03-23T09:55:34.049Z,35.25
2019-03-23T09:56:34.032Z,35.30
2019-03-23T09:57:34.026Z,35.30
2019-03-23T09:58:34.035Z,35.25
2019-03-23T09:59:34.037Z,35.44
2019-03-23T10:00:34.014Z,35.58
2019-03-23T10:01:34.034Z,35.79
2019-03-23T10:02:33.974Z,35.82
2019-03-23T10:03:33.981Z,35.62
2019-03-23T10:04:33.950Z,35.55
2019-03-23T10:05:33.936Z,35.58
2019-03-23T10:06:33.947Z,35.25
2019-03-23T10:07:33.956Z,35.17
2019-03-23T10:08:33.915Z,35.08
2019-03-23T10:09:33.938Z,34.80
2019-03-23T10:10:33.899Z,34.69
2019-03-23T10:11:33.894Z,34.83
2019-03-23T10:12:33.931Z,34.91
2019-03-23T10:13:33.894Z,34.80
2019-03-23T10:14:33.846Z,34.51
2019-03-23T10:15:33.874Z,34.53
2019-03-23T10:16:33.833Z,34.61
2019-03-23T10:17:33.832Z,34.60
2019-03-23T10:18:33.826Z,34.31
2019-03-23T10:19:33.810Z,34.60
2019-03-23T10:20:33.802Z,34.41
2019-03-23T10:21:33.807Z,34.80
2019-03-23T10:22:33.765Z,34.89
2019-03-23T10:23:33.796Z,34.79
2019-03-23T10:24:33.768Z,34.56
2019-03-23T10:25:33.764Z,34.44
2019-03-23T10:26:33.745Z,34.48
2019-03-23T10:27:33.738Z,34.66
2019-03-23T10:28:33.714Z,34.38
2019-03-23T10:29:33.715Z,34.31
2019-03-23T10:30:33.774Z,34.32
2019-03-23T10:31:33.701Z,34.29
2019-03-23T10:32:33.702Z,34.44
2019-03-23T10:33:33.689Z,34.46
2019-03-23T10:34:33.657Z,34.51
2019-03-23T10:35:33.645Z,34.60
2019-03-23T10:36:33.667Z,34.66
2019-03-23T10:37:33.679Z,34.61
2019-03-23T10:38:33.632Z,34.73
2019-03-23T10:39:33.612Z,34.69
2019-03-23T10:40:33.590Z,34.61
2019-03-23T10:41:33.581Z,34.53
2019-03-23T10:42:33.614Z,34.74
2019-03-23T10:43:33.577Z,34.74
2019-03-23T10:44:33.571Z,34.60
2019-03-23T10:45:40.073Z,34.53
2019-03-23T10:46:34.549Z,34.64
2019-03-23T10:47:33.646Z,34.54
2019-03-23T10:48:33.530Z,34.39
2019-03-23T10:49:33.516Z,34.53
2019-03-23T10:50:33.510Z,34.54
2019-03-23T10:51:33.514Z,34.96
2019-03-23T10:52:33.487Z,34.77
2019-03-23T10:53:33.490Z,34.80
2019-03-23T10:54:33.450Z,35.14
2019-03-23T10:55:33.443Z,35.08
2019-03-23T10:56:33.489Z,35.20
2019-03-23T10:57:33.436Z,35.08
2019-03-23T10:58:33.412Z,34.80
2019-03-23T10:59:33.413Z,34.60
2019-03-23T11:00:33.401Z,34.74
2019-03-23T11:01:33.389Z,34.91
2019-03-23T11:02:33.402Z,34.95
2019-03-23T11:03:33.401Z,34.92
2019-03-23T11:04:33.360Z,34.96
2019-03-23T11:05:33.355Z,35.14
2019-03-23T11:06:33.334Z,34.96
2019-03-23T11:07:33.330Z,34.83
2019-03-23T11:08:33.327Z,34.64
2019-03-23T11:09:33.301Z,34.61
2019-03-23T11:10:41.574Z,34.58
2019-03-23T11:11:34.289Z,34.29
2019-03-23T11:12:33.279Z,34.22
2019-03-23T11:13:33.296Z,34.35
2019-03-23T11:14:33.265Z,34.20
2019-03-23T11:15:33.256Z,34.44
2019-03-23T11:16:33.256Z,34.26
2019-03-23T11:17:33.244Z,34.19
2019-03-23T11:18:33.215Z,34.08
2019-03-23T11:19:33.241Z,34.07
2019-03-23T11:20:33.197Z,33.87
2019-03-23T11:21:33.209Z,34.01
2019-03-23T11:22:33.192Z,34.04
2019-03-23T11:23:33.189Z,33.48
2019-03-23T11:24:33.190Z,33.39
2019-03-23T11:25:33.158Z,33.20
2019-03-23T11:26:33.139Z,33.27
2019-03-23T11:27:33.141Z,33.01
2019-03-23T11:28:33.135Z,32.81
2019-03-23T11:29:33.162Z,32.73
2019-03-23T11:30:33.095Z,32.52
2019-03-23T11:31:33.091Z,32.37
2019-03-23T11:32:33.101Z,32.35
2019-03-23T11:33:33.070Z,32.49
2019-03-23T11:34:33.076Z,32.40
2019-03-23T11:35:33.080Z,32.40
2019-03-23T11:36:33.044Z,31.91
2019-03-23T11:37:33.105Z,31.96
2019-03-23T11:38:33.067Z,32.10
2019-03-23T11:39:33.010Z,32.13
2019-03-23T11:40:33.027Z,32.13
2019-03-23T11:41:33.015Z,32.13
2019-03-23T11:42:33.001Z,31.95
2019-03-23T11:43:32.984Z,31.93
2019-03-23T11:44:32.966Z,32.02
2019-03-23T11:45:32.956Z,31.96
2019-03-23T11:46:32.975Z,32.13
2019-03-23T11:47:32.938Z,32.30
2019-03-23T11:48:32.952Z,32.27
2019-03-23T11:49:32.922Z,32.02
2019-03-23T11:50:32.918Z,31.50
2019-03-23T11:51:32.893Z,31.02
2019-03-23T11:52:32.888Z,30.75
2019-03-23T11:53:32.874Z,30.65
2019-03-23T11:54:32.905Z,30.64
2019-03-23T11:55:32.882Z,30.62
2019-03-23T11:56:32.842Z,30.52
2019-03-23T11:57:32.839Z,30.49
2019-03-23T11:58:32.843Z,30.03
2019-03-23T11:59:32.835Z,29.96
2019-03-23T12:00:32.814Z,29.81
2019-03-23T12:01:32.807Z,29.65
2019-03-23T12:02:32.782Z,29.94
2019-03-23T12:03:32.804Z,29.72
2019-03-23T12:04:32.757Z,29.44
2019-03-23T12:05:32.756Z,29.01
2019-03-23T12:06:32.751Z,29.13
2019-03-23T12:07:32.740Z,29.23
2019-03-23T12:08:32.728Z,29.50
2019-03-23T12:09:32.740Z,29.74
2019-03-23T12:10:32.700Z,29.68
2019-03-23T12:11:32.693Z,29.55
2019-03-23T12:12:32.685Z,29.50
2019-03-23T12:13:32.670Z,29.43
2019-03-23T12:14:32.700Z,29.19
2019-03-23T12:15:32.676Z,29.25
2019-03-23T12:16:32.654Z,29.01
2019-03-23T12:17:32.629Z,28.75
2019-03-23T12:18:32.653Z,27.91
2019-03-23T12:19:32.619Z,27.33
2019-03-23T12:20:32.628Z,26.77
2019-03-23T12:21:32.603Z,26.22
2019-03-23T12:22:32.573Z,25.52
2019-03-23T12:23:32.567Z,24.73
2019-03-23T12:24:32.561Z,23.71
2019-03-23T12:25:32.563Z,23.15
2019-03-23T12:26:32.542Z,22.41
2019-03-23T12:27:32.533Z,22.04
2019-03-23T12:28:32.539Z,21.51
2019-03-23T12:29:32.520Z,21.04
2019-03-23T12:30:32.525Z,20.61
2019-03-23T12:31:32.478Z,20.41
2019-03-23T12:32:32.479Z,20.23
2019-03-23T12:33:32.476Z,20.13
2019-03-23T12:34:32.472Z,20.10
2019-03-23T12:35:32.440Z,19.88
2019-03-23T12:36:32.429Z,19.78
2019-03-23T12:37:32.435Z,19.60
2019-03-23T12:38:32.423Z,19.29
2019-03-23T12:39:32.405Z,19.05
2019-03-23T12:40:32.389Z,18.84
2019-03-23T12:41:32.394Z,18.62
2019-03-23T12:42:32.375Z,18.62
2019-03-23T12:43:32.352Z,18.33
2019-03-23T12:44:32.339Z,18.15
2019-03-23T12:45:32.338Z,17.99
2019-03-23T12:46:32.326Z,17.78
2019-03-23T12:47:32.346Z,17.55
2019-03-23T12:48:32.298Z,17.46
2019-03-23T12:49:32.287Z,17.40
2019-03-23T12:50:32.282Z,17.43
2019-03-23T12:51:32.301Z,17.36
2019-03-23T12:52:32.263Z,17.22
2019-03-23T12:53:32.315Z,17.17
2019-03-23T12:54:32.238Z,17.10
2019-03-23T12:55:32.216Z,17.11
2019-03-23T12:56:32.208Z,17.11
2019-03-23T12:57:32.200Z,17.14
2019-03-23T12:58:32.226Z,17.11
2019-03-23T12:59:32.187Z,17.13
2019-03-23T13:00:32.176Z,17.11
2019-03-23T13:01:32.195Z,17.13
2019-03-23T13:02:32.144Z,17.13
2019-03-23T13:03:32.130Z,17.06
2019-03-23T13:04:32.166Z,16.98
2019-03-23T13:05:32.116Z,16.80